Time;durP1;ratioP1;P1;durP2;ratioP2;P2;SDS_P1;SDS_P2;PMS_P1;PMS_P2;Temp;Humidity;BMP_temperature;BMP_pressure;BME280_temperature;BME280_humidity;BME280_pressure;Samples;Min_cycle;Max_cycle;Signal;HPM_P1;HPM_P2
2022/11/15 00:00:56;;;;;;;0.33;0.33;;;;;;;7.23;86.26;95393.31;4372539;32;20204;-67
2022/11/15 00:03:26;;;;;;;0.57;0.57;;;;;;;7.19;86.59;95390.44;4353279;32;20355;-67
2022/11/15 00:05:53;;;;;;;0.50;0.50;;;;;;;7.41;85.35;95387.44;4371808;32;20216;-67
2022/11/15 00:08:19;;;;;;;1.90;0.93;;;;;;;7.24;85.96;95384.34;4326748;32;20304;-67
2022/11/15 00:11:00;;;;;;;0.87;0.87;;;;;;;7.20;86.17;95380.69;4360765;32;20325;-66
2022/11/15 00:13:27;;;;;;;0.70;0.70;;;;;;;7.22;86.41;95374.06;4345817;32;20293;-67
2022/11/15 00:15:58;;;;;;;1.50;0.67;;;;;;;7.19;86.22;95374.59;4353821;32;20296;-67
2022/11/15 00:18:25;;;;;;;1.80;1.00;;;;;;;7.06;86.53;95377.03;4359771;32;20269;-67
2022/11/15 00:20:51;;;;;;;0.53;0.53;;;;;;;7.07;86.43;95373.31;4359077;32;20326;-67
2022/11/15 00:23:18;;;;;;;0.37;0.37;;;;;;;7.11;86.35;95374.37;4358950;32;20335;-67
2022/11/15 00:25:46;;;;;;;0.30;0.30;;;;;;;7.05;86.07;95373.63;4333695;32;20349;-67
2022/11/15 00:28:14;;;;;;;1.33;1.10;;;;;;;6.99;86.41;95374.69;4348302;32;20285;-68
2022/11/15 00:30:41;;;;;;;0.40;0.40;;;;;;;7.08;86.38;95373.06;4355668;32;20268;-67
2022/11/15 00:33:10;;;;;;;0.33;0.33;;;;;;;7.07;86.13;95365.41;4366419;32;20379;-68
2022/11/15 00:35:35;;;;;;;0.50;0.50;;;;;;;7.08;85.74;95367.00;4353910;32;20339;-67
2022/11/15 00:38:02;;;;;;;0.53;0.53;;;;;;;7.24;84.66;95371.97;4368404;32;20273;-68
2022/11/15 00:40:29;;;;;;;0.70;0.70;;;;;;;7.21;85.17;95375.13;4373785;32;20238;-67
2022/11/15 00:42:57;;;;;;;0.90;0.90;;;;;;;6.96;85.41;95374.44;4363344;32;20288;-68
2022/11/15 00:45:24;;;;;;;0.50;0.50;;;;;;;6.84;86.15;95367.63;4367898;32;20284;-67
2022/11/15 00:47:51;;;;;;;0.57;0.57;;;;;;;6.72;86.82;95361.84;4364449;32;20269;-67
2022/11/15 00:50:18;;;;;;;0.73;0.73;;;;;;;6.94;85.71;95358.87;4376263;32;20276;-67
2022/11/15 00:52:44;;;;;;;0.80;0.80;;;;;;;6.91;85.72;95362.03;4370741;32;20272;-67
2022/11/15 00:55:19;;;;;;;1.97;1.77;;;;;;;7.04;85.43;95352.78;4346233;32;20276;-67
2022/11/15 00:57:46;;;;;;;1.30;1.20;;;;;;;7.02;85.50;95353.06;4361284;32;20267;-67
2022/11/15 01:00:33;;;;;;;0.67;0.67;;;;;;;6.93;85.37;95352.00;4386617;32;20284;-67
2022/11/15 01:03:03;;;;;;;0.50;0.50;;;;;;;7.00;85.32;95349.09;4377123;32;20300;-67
2022/11/15 01:05:29;;;;;;;0.60;0.60;;;;;;;6.74;85.89;95349.19;4389718;32;20338;-67
2022/11/15 01:07:57;;;;;;;0.80;0.80;;;;;;;6.84;85.86;95333.34;4343169;32;20276;-67
2022/11/15 01:10:25;;;;;;;0.60;0.60;;;;;;;6.89;85.69;95332.50;4349059;32;20284;-67
2022/11/15 01:12:52;;;;;;;0.70;0.70;;;;;;;6.74;85.85;95324.66;4368025;32;20335;-68
2022/11/15 01:15:18;;;;;;;1.43;0.90;;;;;;;6.65;86.29;95329.69;4374868;32;20291;-68
2022/11/15 01:17:46;;;;;;;0.40;0.40;;;;;;;6.66;86.00;95328.63;4350556;32;20289;-67
2022/11/15 01:20:12;;;;;;;0.60;0.60;;;;;;;6.64;86.17;95329.97;4367591;32;20203;-68
2022/11/15 01:22:42;;;;;;;1.40;0.47;;;;;;;6.49;86.93;95328.16;4373886;32;20296;-67
2022/11/15 01:25:08;;;;;;;1.13;0.87;;;;;;;6.31;87.23;95326.06;4347355;32;20292;-67
2022/11/15 01:27:36;;;;;;;0.80;0.80;;;;;;;6.38;87.35;95316.84;4368511;32;20275;-67
2022/11/15 01:30:04;;;;;;;0.20;0.20;;;;;;;6.36;87.80;95318.16;4354058;32;20297;-67
2022/11/15 01:32:34;;;;;;;0.30;0.30;;;;;;;6.20;87.69;95312.94;4370624;32;20320;-67
2022/11/15 01:34:59;;;;;;;0.60;0.60;;;;;;;6.34;87.26;95307.09;4373848;32;20427;-67
2022/11/15 01:37:28;;;;;;;0.30;0.30;;;;;;;6.26;86.50;95302.38;4371480;32;20280;-67
2022/11/15 01:39:57;;;;;;;1.20;0.80;;;;;;;6.26;87.04;95299.75;4388045;32;20185;-67
2022/11/15 01:42:23;;;;;;;0.70;0.70;;;;;;;6.28;87.03;95300.25;4343238;32;20335;-67
2022/11/15 01:44:54;;;;;;;0.37;0.37;;;;;;;6.33;86.61;95300.25;4372005;32;20285;-67
2022/11/15 01:47:38;;;;;;;0.40;0.40;;;;;;;6.49;85.58;95294.69;4359978;32;20277;-67
2022/11/15 01:50:14;;;;;;;2.00;0.60;;;;;;;6.65;85.00;95295.41;4362568;32;20390;-67
2022/11/15 01:52:42;;;;;;;0.77;0.77;;;;;;;6.50;85.14;95283.09;4367898;32;20300;-67
2022/11/15 01:55:21;;;;;;;0.20;0.20;;;;;;;6.47;85.18;95283.63;4355768;32;20289;-67
2022/11/15 01:57:53;;;;;;;0.30;0.30;;;;;;;6.17;85.90;95281.06;4368933;32;20280;-67
2022/11/15 02:00:20;;;;;;;0.53;0.30;;;;;;;6.31;85.41;95279.44;4370144;32;20277;-67
2022/11/15 02:02:48;;;;;;;0.30;0.30;;;;;;;6.10;86.50;95272.66;4362424;32;20285;-67
2022/11/15 02:05:15;;;;;;;0.20;0.20;;;;;;;6.31;86.11;95268.91;4359392;32;20293;-66
2022/11/15 02:07:40;;;;;;;0.40;0.40;;;;;;;6.17;86.04;95279.22;4335901;32;20342;-68
2022/11/15 02:10:30;;;;;;;0.43;0.43;;;;;;;6.31;85.36;95273.38;4333306;32;20273;-67
2022/11/15 02:12:56;;;;;;;0.87;0.87;;;;;;;6.35;85.02;95267.34;4360186;32;20193;-67
2022/11/15 02:15:35;;;;;;;0.50;0.50;;;;;;;6.32;85.22;95265.22;4368148;32;20280;-67
2022/11/15 02:18:31;;;;;;;2.57;1.40;;;;;;;6.36;84.75;95262.84;4364296;32;20334;-68
2022/11/15 02:21:33;;;;;;;0.30;0.30;;;;;;;6.34;84.67;95252.56;4356761;32;20351;-67
2022/11/15 02:24:32;;;;;;;0.63;0.63;;;;;;;6.36;84.81;95255.72;4349913;32;20296;-67
2022/11/15 02:27:48;;;;;;;1.47;1.13;;;;;;;6.24;84.67;95265.75;4357210;32;20409;-67
2022/11/15 02:30:46;;;;;;;0.30;0.30;;;;;;;6.21;85.11;95261.06;4365084;32;20342;-67
2022/11/15 02:33:34;;;;;;;0.40;0.40;;;;;;;6.29;84.80;95257.06;4359592;32;20299;-67
2022/11/15 02:36:14;;;;;;;0.20;0.20;;;;;;;6.32;84.77;95256.53;4366704;32;20284;-67
2022/11/15 02:39:08;;;;;;;0.33;0.33;;;;;;;6.49;83.93;95264.91;4370216;32;20292;-67
2022/11/15 02:45:32;;;;;;;0.53;0.53;;;;;;;6.44;83.13;95259.69;4300963;33;20320;-68
2022/11/15 02:48:03;;;;;;;0.20;0.20;;;;;;;6.51;83.34;95257.53;4262830;33;20284;-67
2022/11/15 02:50:35;;;;;;;0.20;0.20;;;;;;;6.27;84.27;95248.62;4352909;32;20272;-67
2022/11/15 02:53:03;;;;;;;0.27;0.27;;;;;;;6.27;84.32;95249.44;4368716;32;20361;-67
2022/11/15 02:55:36;;;;;;;0.40;0.40;;;;;;;6.22;84.65;95251.31;4369911;32;20289;-67
2022/11/15 02:58:35;;;;;;;1.20;0.50;;;;;;;6.42;83.37;95248.62;4361507;32;20383;-67
2022/11/15 03:01:36;;;;;;;0.20;0.20;;;;;;;6.41;83.61;95244.41;4362888;32;20332;-67
2022/11/15 03:04:44;;;;;;;0.50;0.50;;;;;;;6.18;83.90;95245.78;4348623;32;20351;-67
2022/11/15 03:07:50;;;;;;;0.40;0.40;;;;;;;6.08;85.52;95240.53;4378276;32;20341;-68
2022/11/15 03:10:27;;;;;;;0.37;0.37;;;;;;;6.25;84.47;95235.72;4318408;32;20355;-67
2022/11/15 03:13:00;;;;;;;0.63;0.63;;;;;;;6.34;84.42;95236.78;4319354;32;20373;-67
2022/11/15 03:15:37;;;;;;;0.50;0.50;;;;;;;6.08;84.48;95233.41;4356834;32;20294;-67
2022/11/15 03:18:30;;;;;;;0.40;0.40;;;;;;;6.06;84.76;95219.72;4356483;32;20289;-67
2022/11/15 03:20:59;;;;;;;0.90;0.90;;;;;;;6.21;84.30;95218.91;4364023;32;20280;-67
2022/11/15 03:23:28;;;;;;;0.47;0.47;;;;;;;6.31;83.38;95225.97;4353984;32;20281;-67
2022/11/15 03:25:57;;;;;;;0.47;0.47;;;;;;;6.39;83.18;95220.16;4364511;32;20292;-67
2022/11/15 03:28:48;;;;;;;0.50;0.50;;;;;;;6.47;83.24;95228.28;4336020;32;20293;-67
2022/11/15 03:34:08;;;;;;;0.10;0.10;;;;;;;6.57;82.74;95214.28;4368185;32;20286;-67
2022/11/15 03:36:35;;;;;;;0.33;0.33;;;;;;;6.57;82.10;95219.56;4372861;32;20477;-67
2022/11/15 03:39:09;;;;;;;0.00;0.00;;;;;;;6.54;82.37;95209.56;4382404;32;20330;-67
2022/11/15 03:41:56;;;;;;;0.73;0.67;;;;;;;6.50;82.27;95205.88;4360156;32;20350;-67
2022/11/15 03:44:50;;;;;;;0.87;0.50;;;;;;;6.40;82.16;95208.56;4376327;32;20335;-67
2022/11/15 03:47:43;;;;;;;0.30;0.30;;;;;;;6.26;82.77;95202.28;4372976;32;20391;-67
2022/11/15 03:50:15;;;;;;;0.00;0.00;;;;;;;5.82;84.28;95197.63;4350181;32;20281;-67
2022/11/15 03:52:42;;;;;;;0.33;0.33;;;;;;;5.91;84.31;95198.69;4334736;32;20278;-67
2022/11/15 03:55:14;;;;;;;0.37;0.37;;;;;;;6.00;83.99;95209.47;4359133;32;20280;-68
2022/11/15 03:57:40;;;;;;;0.20;0.20;;;;;;;6.00;83.39;95204.22;4374225;32;20398;-67
2022/11/15 04:00:32;;;;;;;0.70;0.70;;;;;;;5.84;83.80;95198.16;4365224;32;20273;-68
2022/11/15 04:03:00;;;;;;;0.43;0.43;;;;;;;5.95;83.72;95193.69;4365686;32;20348;-67
2022/11/15 04:05:27;;;;;;;0.43;0.43;;;;;;;5.91;83.88;95195.28;4370922;32;20277;-68
2022/11/15 04:07:54;;;;;;;0.27;0.27;;;;;;;5.87;83.78;95192.34;4362379;32;20265;-67
2022/11/15 04:10:21;;;;;;;0.30;0.30;;;;;;;5.92;83.96;95186.31;4370407;32;20273;-67
2022/11/15 04:12:50;;;;;;;0.50;0.50;;;;;;;5.98;83.71;95182.63;4361140;32;20291;-67
2022/11/15 04:15:19;;;;;;;0.60;0.60;;;;;;;6.16;83.04;95179.41;4357396;32;20356;-67
2022/11/15 04:17:55;;;;;;;0.40;0.40;;;;;;;6.25;82.26;95179.62;4321997;32;20348;-67
2022/11/15 04:26:05;;;;;;;0.20;0.20;;;;;;;5.64;83.48;95177.13;4375834;32;20311;-68
2022/11/15 04:28:32;;;;;;;0.33;0.33;;;;;;;5.44;84.40;95176.09;4342013;32;20359;-67
2022/11/15 04:30:59;;;;;;;0.20;0.20;;;;;;;5.51;84.66;95170.56;4374398;32;20311;-67
2022/11/15 04:33:24;;;;;;;0.73;0.73;;;;;;;5.93;83.12;95164.22;4365811;32;20369;-67
2022/11/15 04:38:37;;;;;;;0.37;0.33;;;;;;;5.71;83.22;95169.75;4364173;32;20286;-67
2022/11/15 04:41:02;;;;;;;0.43;0.43;;;;;;;5.84;82.73;95166.56;4362227;32;20299;-67
2022/11/15 04:43:28;;;;;;;0.30;0.30;;;;;;;5.91;82.60;95159.22;4335147;32;20288;-67
2022/11/15 04:45:55;;;;;;;0.30;0.30;;;;;;;6.08;81.79;95158.88;4338475;32;20178;-68
2022/11/15 04:48:21;;;;;;;0.33;0.33;;;;;;;5.86;81.89;95164.44;4361315;32;20249;-67
2022/11/15 04:50:49;;;;;;;0.70;0.70;;;;;;;5.57;83.21;95168.72;4369377;32;20272;-67
2022/11/15 04:53:15;;;;;;;0.50;0.50;;;;;;;5.71;83.06;95167.13;4321276;32;20345;-67
2022/11/15 04:55:50;;;;;;;0.23;0.23;;;;;;;5.86;82.43;95167.09;4338849;32;20278;-67
2022/11/15 04:58:18;;;;;;;0.20;0.20;;;;;;;5.84;81.91;95154.19;4348958;32;20177;-67
2022/11/15 05:00:44;;;;;;;0.30;0.30;;;;;;;5.84;82.16;95163.94;4373480;32;20280;-67
2022/11/15 05:05:57;;;;;;;0.20;0.20;;;;;;;5.72;82.80;95156.34;4364524;32;20220;-67
2022/11/15 05:08:22;;;;;;;0.37;0.37;;;;;;;5.83;82.68;95162.34;4378614;32;20274;-67
2022/11/15 05:10:48;;;;;;;0.57;0.57;;;;;;;5.72;83.08;95155.53;4363466;32;20272;-67
2022/11/15 05:13:17;;;;;;;0.67;0.63;;;;;;;5.76;82.61;95146.84;4369942;32;20305;-67
2022/11/15 05:15:44;;;;;;;0.50;0.50;;;;;;;5.73;82.76;95152.66;4354974;32;20304;-67
2022/11/15 05:18:12;;;;;;;1.90;0.97;;;;;;;5.69;82.76;95150.81;4380763;32;20283;-67
2022/11/15 05:20:38;;;;;;;0.53;0.53;;;;;;;5.79;82.25;95151.59;4374683;32;20310;-67
2022/11/15 05:23:08;;;;;;;0.43;0.43;;;;;;;5.75;82.67;95149.75;4381250;32;20445;-67
2022/11/15 05:25:36;;;;;;;0.40;0.27;;;;;;;5.62;83.09;95148.44;4366765;32;21490;-67
2022/11/15 05:28:02;;;;;;;0.20;0.20;;;;;;;5.75;82.62;95141.84;4380586;32;20330;-67
2022/11/15 05:30:32;;;;;;;0.60;0.60;;;;;;;5.70;82.52;95136.59;4377566;32;20304;-67
2022/11/15 05:33:03;;;;;;;0.20;0.20;;;;;;;5.72;82.31;95122.13;4366611;32;20184;-67
2022/11/15 05:35:41;;;;;;;0.60;0.30;;;;;;;5.69;82.25;95127.12;4347587;32;20296;-67
2022/11/15 05:38:08;;;;;;;0.93;0.83;;;;;;;5.78;82.05;95122.91;4357749;32;20364;-67
2022/11/15 05:40:37;;;;;;;0.20;0.20;;;;;;;5.64;82.61;95122.66;4374404;32;20295;-67
2022/11/15 05:43:26;;;;;;;0.23;0.23;;;;;;;5.59;82.59;95119.28;4367377;32;20274;-67
2022/11/15 05:45:54;;;;;;;0.43;0.43;;;;;;;5.64;82.37;95116.59;4359965;32;20324;-67
2022/11/15 05:48:21;;;;;;;0.07;0.07;;;;;;;5.56;82.77;95114.53;4389131;32;20280;-66
2022/11/15 05:50:52;;;;;;;0.37;0.37;;;;;;;5.72;82.28;95119.50;4386498;32;20274;-67
2022/11/15 05:53:22;;;;;;;0.00;0.00;;;;;;;5.62;82.35;95119.50;4348716;32;20337;-67
2022/11/15 05:55:48;;;;;;;0.23;0.23;;;;;;;5.53;82.54;95121.91;4342090;32;20278;-67
2022/11/15 05:58:19;;;;;;;0.83;0.83;;;;;;;5.80;81.80;95120.78;4369280;32;20265;-66
2022/11/15 06:00:56;;;;;;;0.43;0.43;;;;;;;5.76;81.56;95117.13;4343850;32;20273;-67
2022/11/15 06:03:23;;;;;;;0.50;0.37;;;;;;;5.69;82.08;95116.59;4370427;32;20366;-67
2022/11/15 06:05:48;;;;;;;1.17;0.50;;;;;;;5.77;82.00;95116.06;4355491;32;20291;-67
2022/11/15 06:08:15;;;;;;;0.37;0.37;;;;;;;5.82;81.87;95102.88;4343127;32;20305;-67
2022/11/15 06:10:41;;;;;;;1.23;0.30;;;;;;;5.84;81.67;95106.81;4367772;32;20318;-67
2022/11/15 06:13:08;;;;;;;0.33;0.33;;;;;;;5.82;81.65;95094.97;4369027;32;20279;-68
2022/11/15 06:15:34;;;;;;;0.57;0.57;;;;;;;5.84;81.44;95098.13;4375359;32;23299;-67
2022/11/15 06:18:02;;;;;;;0.13;0.13;;;;;;;5.78;81.23;95092.09;4352331;32;20348;-67
2022/11/15 06:20:32;;;;;;;0.30;0.30;;;;;;;5.96;81.17;95098.66;4336760;32;20288;-67
2022/11/15 06:23:03;;;;;;;0.30;0.30;;;;;;;5.85;80.92;95094.44;4353652;32;20276;-67
2022/11/15 06:25:29;;;;;;;0.10;0.10;;;;;;;5.83;80.70;95099.97;4364699;32;20312;-67
2022/11/15 06:28:00;;;;;;;0.30;0.30;;;;;;;5.52;82.00;95103.75;4354812;32;20346;-67
2022/11/15 06:30:27;;;;;;;0.30;0.30;;;;;;;5.49;82.54;95102.44;4354153;32;20286;-68
2022/11/15 06:33:00;;;;;;;0.40;0.40;;;;;;;5.77;82.00;95100.28;4328388;32;20290;-67
2022/11/15 06:35:28;;;;;;;0.30;0.30;;;;;;;5.80;81.85;95097.09;4372825;32;20268;-68
2022/11/15 06:37:54;;;;;;;0.20;0.20;;;;;;;5.75;81.78;95102.38;4357751;32;20288;-67
2022/11/15 06:40:21;;;;;;;0.30;0.30;;;;;;;5.91;81.41;95103.13;4371177;32;20347;-67
2022/11/15 06:42:47;;;;;;;0.13;0.13;;;;;;;5.86;81.94;95106.53;4355562;32;20302;-67
2022/11/15 06:45:15;;;;;;;0.67;0.67;;;;;;;6.02;80.95;95113.38;4374032;32;20290;-67
2022/11/15 06:47:47;;;;;;;0.20;0.20;;;;;;;5.80;81.68;95112.91;4339768;32;20270;-67
2022/11/15 06:50:16;;;;;;;0.50;0.50;;;;;;;5.82;81.88;95113.38;4365283;32;20331;-68
2022/11/15 06:52:43;;;;;;;0.30;0.30;;;;;;;5.97;80.80;95104.72;4371660;32;20362;-68
2022/11/15 06:55:09;;;;;;;0.27;0.27;;;;;;;5.78;81.30;95115.00;4374570;32;20400;-67
2022/11/15 06:57:36;;;;;;;0.30;0.30;;;;;;;5.66;81.93;95107.41;4351195;32;20426;-67
2022/11/15 07:00:09;;;;;;;0.50;0.50;;;;;;;5.81;81.24;95102.09;4319150;32;20330;-67
2022/11/15 07:02:34;;;;;;;0.40;0.40;;;;;;;5.76;81.51;95110.00;4375334;32;20284;-68
2022/11/15 07:05:00;;;;;;;0.40;0.40;;;;;;;5.77;81.39;95116.06;4375446;32;20299;-67
2022/11/15 07:07:25;;;;;;;0.30;0.30;;;;;;;5.83;81.40;95118.38;4389076;32;20184;-67
2022/11/15 07:09:50;;;;;;;0.20;0.20;;;;;;;5.74;81.48;95116.59;4366152;32;20252;-67
2022/11/15 07:12:19;;;;;;;0.57;0.57;;;;;;;5.83;81.53;95117.59;4366367;32;20208;-66
2022/11/15 07:14:45;;;;;;;0.17;0.17;;;;;;;5.80;81.50;95112.91;4373846;32;20184;-66
2022/11/15 07:17:10;;;;;;;0.40;0.40;;;;;;;5.76;81.71;95107.37;4369624;32;20287;-67
2022/11/15 07:19:36;;;;;;;0.70;0.70;;;;;;;5.93;81.55;95114.19;4384608;32;20317;-67
2022/11/15 07:22:02;;;;;;;0.13;0.13;;;;;;;6.09;80.32;95119.12;4362258;32;20228;-68
2022/11/15 07:24:29;;;;;;;0.13;0.13;;;;;;;6.21;79.98;95113.56;4372552;32;20177;-68
2022/11/15 07:26:57;;;;;;;0.53;0.53;;;;;;;6.28;79.67;95110.63;4382194;32;20276;-68
2022/11/15 07:29:24;;;;;;;0.30;0.30;;;;;;;6.11;80.39;95116.22;4357799;32;20277;-66
2022/11/15 07:31:50;;;;;;;0.40;0.33;;;;;;;6.03;80.89;95116.78;4352091;32;20306;-67
2022/11/15 07:34:16;;;;;;;0.50;0.50;;;;;;;6.08;81.03;95117.56;4363946;32;20326;-66
2022/11/15 07:36:42;;;;;;;0.73;0.70;;;;;;;6.21;80.67;95116.19;4343107;32;20351;-68
2022/11/15 07:39:08;;;;;;;0.50;0.43;;;;;;;6.12;81.04;95118.59;4387443;32;20247;-67
2022/11/15 07:41:34;;;;;;;0.40;0.40;;;;;;;6.11;81.92;95119.66;4372463;32;20364;-66
2022/11/15 07:44:01;;;;;;;1.30;1.03;;;;;;;6.23;81.68;95111.44;4337199;32;20272;-52
2022/11/15 07:46:26;;;;;;;10.00;1.93;;;;;;;7.12;98.83;95109.53;4369449;32;20299;-53
2022/11/15 07:48:53;;;;;;;0.70;0.60;;;;;;;8.62;100.00;95099.47;4369951;32;20177;-55
2022/11/15 07:51:23;;;;;;;4.60;1.03;;;;;;;9.27;100.00;95092.37;4353278;32;20227;-55
2022/11/15 07:53:49;;;;;;;0.70;0.70;;;;;;;9.67;100.00;95092.75;4365100;32;20315;-53
2022/11/15 07:56:16;;;;;;;0.43;0.43;;;;;;;10.03;97.76;95076.97;4365720;32;20277;-53
2022/11/15 07:58:46;;;;;;;0.60;0.60;;;;;;;10.55;92.91;95086.25;4350296;32;20251;-68
2022/11/15 08:01:13;;;;;;;0.90;0.60;;;;;;;10.04;78.44;95089.12;4377013;32;20189;-65
2022/11/15 08:03:40;;;;;;;1.07;1.00;;;;;;;9.37;72.66;95096.72;4320664;32;20257;-67
2022/11/15 08:06:07;;;;;;;1.07;0.97;;;;;;;8.82;74.13;95099.19;4383534;32;20230;-66
2022/11/15 08:08:33;;;;;;;1.13;0.60;;;;;;;8.32;75.30;95098.00;4363880;32;20217;-66
2022/11/15 08:10:59;;;;;;;0.47;0.47;;;;;;;7.96;77.11;95089.72;4367658;32;20205;-66
2022/11/15 08:13:24;;;;;;;0.97;0.97;;;;;;;7.74;77.90;95087.56;4383627;32;20188;-66
2022/11/15 08:15:50;;;;;;;0.60;0.60;;;;;;;7.64;77.73;95081.62;4376481;32;20187;-65
2022/11/15 08:18:16;;;;;;;0.47;0.47;;;;;;;7.65;76.60;95081.34;4355897;32;20193;-65
2022/11/15 08:20:43;;;;;;;3.03;0.97;;;;;;;7.80;76.00;95072.47;4369460;32;20237;-65
2022/11/15 08:23:11;;;;;;;2.37;0.83;;;;;;;7.76;75.72;95066.97;4364848;32;20276;-66
2022/11/15 08:25:39;;;;;;;0.90;0.83;;;;;;;7.88;75.45;95064.72;4359184;32;20302;-66
2022/11/15 08:28:10;;;;;;;0.60;0.60;;;;;;;8.04;74.95;95061.91;4344794;32;20418;-67
2022/11/15 08:30:38;;;;;;;1.27;0.90;;;;;;;8.10;75.28;95051.00;4344780;32;20215;-66
2022/11/15 08:33:04;;;;;;;1.33;1.23;;;;;;;8.14;75.08;95040.63;4355464;32;20295;-65
2022/11/15 08:35:32;;;;;;;0.50;0.50;;;;;;;8.22;74.94;95032.06;4362444;32;20280;-65
2022/11/15 08:37:58;;;;;;;0.93;0.93;;;;;;;8.24;76.32;95024.63;4354982;32;20353;-65
2022/11/15 08:40:26;;;;;;;0.73;0.73;;;;;;;8.33;74.76;95022.94;4368178;32;20212;-64
2022/11/15 08:42:53;;;;;;;0.87;0.87;;;;;;;8.33;75.14;95025.59;4357666;32;20213;-66
2022/11/15 08:45:21;;;;;;;0.70;0.70;;;;;;;8.49;75.39;95023.53;4361064;32;20294;-63
2022/11/15 08:47:47;;;;;;;2.57;1.37;;;;;;;8.52;76.51;95020.31;4366838;32;20214;-66
2022/11/15 08:50:15;;;;;;;0.57;0.57;;;;;;;8.44;76.13;95027.03;4359978;32;20229;-64
2022/11/15 08:52:40;;;;;;;0.80;0.40;;;;;;;8.48;76.81;95017.47;4360388;32;20192;-64
2022/11/15 08:55:09;;;;;;;0.70;0.70;;;;;;;8.49;76.85;95019.03;4375845;32;20184;-66
2022/11/15 08:57:38;;;;;;;0.63;0.63;;;;;;;8.74;76.06;95031.06;4346326;32;20280;-63
2022/11/15 09:00:04;;;;;;;0.70;0.70;;;;;;;8.78;75.47;95033.91;4367946;32;20244;-65
2022/11/15 09:02:30;;;;;;;0.67;0.67;;;;;;;8.85;74.70;95035.12;4351473;32;20225;-64
2022/11/15 09:04:57;;;;;;;0.80;0.80;;;;;;;8.73;75.32;95036.66;4346859;32;20236;-64
2022/11/15 09:07:25;;;;;;;0.60;0.60;;;;;;;8.81;75.72;95038.63;4373753;32;20224;-64
2022/11/15 09:09:53;;;;;;;0.50;0.50;;;;;;;8.99;73.09;95037.03;4367178;32;20279;-64
2022/11/15 09:12:18;;;;;;;0.70;0.70;;;;;;;9.15;72.35;95033.81;4368660;32;20192;-62
2022/11/15 09:14:46;;;;;;;0.80;0.80;;;;;;;9.26;71.99;95029.94;4369405;32;20199;-62
2022/11/15 09:17:13;;;;;;;0.70;0.70;;;;;;;9.36;72.20;95028.97;4368059;32;20181;-62
2022/11/15 09:19:39;;;;;;;2.60;1.00;;;;;;;9.38;72.00;95026.81;4390067;32;20204;-62
2022/11/15 09:22:08;;;;;;;1.17;1.13;;;;;;;9.41;70.35;95028.09;4378308;32;20188;-64
2022/11/15 09:24:34;;;;;;;1.27;0.47;;;;;;;9.50;71.44;95023.69;4367203;32;20188;-63
2022/11/15 09:27:02;;;;;;;1.47;1.33;;;;;;;9.71;68.49;95013.50;4341578;32;20194;-64
2022/11/15 09:29:29;;;;;;;0.63;0.63;;;;;;;9.64;70.49;95005.94;4361708;32;20189;-61
2022/11/15 09:31:57;;;;;;;1.50;0.93;;;;;;;9.72;70.42;95007.13;4357553;32;20193;-65
2022/11/15 09:34:22;;;;;;;0.70;0.70;;;;;;;9.82;67.05;94999.75;4351268;32;20254;-62
2022/11/15 09:36:48;;;;;;;0.70;0.70;;;;;;;10.06;66.44;94998.72;4345797;32;20181;-63
2022/11/15 09:39:14;;;;;;;0.97;0.97;;;;;;;10.31;65.26;94992.91;4360464;32;20196;-63
2022/11/15 09:42:08;;;;;;;0.90;0.90;;;;;;;10.37;65.77;94999.69;4363041;32;20191;-52
2022/11/15 09:45:04;;;;;;;0.93;0.77;;;;;;;13.78;90.11;94983.44;4308935;32;20253;-53
2022/11/15 09:47:54;;;;;;;7.37;1.13;;;;;;;16.07;71.46;94983.06;4360531;32;20176;-53
2022/11/15 09:50:58;;;;;;;0.83;0.83;;;;;;;16.48;64.50;94969.41;4363298;32;20180;-54
2022/11/15 09:53:49;;;;;;;1.77;1.47;;;;;;;16.94;57.91;94969.16;4367975;32;20226;-62
2022/11/15 09:56:21;;;;;;;0.73;0.73;;;;;;;16.34;48.92;94960.97;4366704;32;20184;-64
2022/11/15 09:59:24;;;;;;;0.73;0.73;;;;;;;14.79;50.48;94960.12;4341288;32;20196;-62
2022/11/15 10:02:19;;;;;;;0.50;0.50;;;;;;;13.69;54.45;94959.50;4355170;32;20172;-64
2022/11/15 10:04:46;;;;;;;0.63;0.50;;;;;;;12.65;56.80;94955.56;4380160;32;20192;-63
2022/11/15 10:07:21;;;;;;;0.60;0.60;;;;;;;11.95;59.86;94956.63;4358399;32;20185;-65
2022/11/15 10:09:56;;;;;;;0.93;0.93;;;;;;;11.59;61.98;94956.81;4379211;32;20267;-64
2022/11/15 10:12:25;;;;;;;0.60;0.60;;;;;;;11.40;63.96;94951.75;4343641;32;20188;-63
2022/11/15 10:15:06;;;;;;;0.30;0.30;;;;;;;11.13;65.66;94947.41;4374753;32;20264;-64
2022/11/15 10:17:57;;;;;;;0.73;0.73;;;;;;;11.12;66.01;94945.06;4357931;32;20226;-62
2022/11/15 10:20:29;;;;;;;0.70;0.70;;;;;;;10.95;66.34;94937.81;4305566;32;20303;-62
2022/11/15 10:23:12;;;;;;;0.77;0.77;;;;;;;10.97;66.72;94928.47;4341151;32;20193;-60
2022/11/15 10:25:38;;;;;;;0.43;0.43;;;;;;;10.95;67.44;94930.63;4361322;32;20203;-61
2022/11/15 10:28:29;;;;;;;0.77;0.60;;;;;;;11.14;65.93;94924.31;4352173;32;20204;-61
2022/11/15 10:31:01;;;;;;;0.60;0.60;;;;;;;11.10;66.98;94918.81;4331952;32;20213;-61
2022/11/15 10:33:37;;;;;;;0.43;0.43;;;;;;;11.11;66.40;94911.66;4369563;32;20262;-62
2022/11/15 10:36:12;;;;;;;0.70;0.70;;;;;;;11.17;65.19;94905.12;4363958;32;20184;-61
2022/11/15 10:39:04;;;;;;;0.83;0.43;;;;;;;11.21;64.38;94911.38;4377030;32;20268;-62
2022/11/15 10:41:38;;;;;;;0.40;0.40;;;;;;;11.19;63.45;94903.72;4353665;32;20185;-60
2022/11/15 10:44:12;;;;;;;0.50;0.50;;;;;;;11.13;64.50;94894.31;4372551;32;20204;-62
2022/11/15 10:46:50;;;;;;;0.70;0.70;;;;;;;11.31;63.48;94893.28;4363902;32;20239;-61
2022/11/15 10:49:24;;;;;;;0.30;0.30;;;;;;;11.27;64.38;94886.25;4339720;32;23648;-63
2022/11/15 10:52:19;;;;;;;0.80;0.80;;;;;;;11.30;64.68;94882.97;4343097;32;20267;-61
2022/11/15 10:54:56;;;;;;;0.37;0.37;;;;;;;11.30;64.12;94882.97;4336791;32;20208;-61
2022/11/15 10:57:38;;;;;;;0.30;0.30;;;;;;;11.42;63.49;94883.19;4337123;32;20195;-62
2022/11/15 11:00:27;;;;;;;0.33;0.33;;;;;;;11.29;65.60;94876.88;4357673;32;20188;-62
2022/11/15 11:03:00;;;;;;;0.33;0.33;;;;;;;11.36;64.45;94868.47;4376093;32;20244;-62
2022/11/15 11:05:40;;;;;;;1.47;0.80;;;;;;;11.57;63.71;94860.69;4372628;32;20234;-62
2022/11/15 11:08:14;;;;;;;0.53;0.53;;;;;;;11.60;64.45;94865.41;4330149;32;20188;-61
2022/11/15 11:10:56;;;;;;;0.57;0.57;;;;;;;11.57;63.79;94856.16;4362597;32;20188;-61
2022/11/15 11:13:26;;;;;;;0.30;0.30;;;;;;;11.67;63.42;94858.50;4346155;32;20189;-61
2022/11/15 11:16:43;;;;;;;0.40;0.40;;;;;;;11.80;62.10;94851.53;4348012;32;20264;-61
2022/11/15 11:19:39;;;;;;;0.40;0.40;;;;;;;11.85;61.77;94850.59;4298538;33;20233;-61
2022/11/15 11:22:51;;;;;;;0.23;0.23;;;;;;;11.80;62.22;94842.78;4299981;32;20237;-61
2022/11/15 11:25:43;;;;;;;1.40;0.67;;;;;;;11.82;62.17;94843.25;4288367;33;20262;-61
2022/11/15 11:28:37;;;;;;;0.20;0.20;;;;;;;11.80;62.95;94837.47;4287369;32;20280;-61
2022/11/15 11:31:51;;;;;;;0.43;0.43;;;;;;;11.74;62.59;94836.81;4364934;32;20196;-61
2022/11/15 11:34:54;;;;;;;0.77;0.77;;;;;;;11.89;61.40;94827.59;4365687;32;20275;-61
2022/11/15 11:37:57;;;;;;;0.23;0.23;;;;;;;11.86;61.31;94828.22;4364249;32;20247;-61
2022/11/15 11:41:01;;;;;;;0.50;0.50;;;;;;;12.09;59.06;94816.34;4371206;32;20192;-61
2022/11/15 11:43:48;;;;;;;0.97;0.43;;;;;;;12.13;59.25;94819.16;4349791;32;20206;-61
2022/11/15 11:46:28;;;;;;;0.43;0.43;;;;;;;12.19;59.48;94816.00;4360796;32;20300;-61
2022/11/15 11:49:34;;;;;;;0.80;0.80;;;;;;;12.30;58.53;94806.59;4344096;32;20207;-61
2022/11/15 11:52:26;;;;;;;0.40;0.40;;;;;;;12.30;59.32;94803.94;4358971;32;20227;-62
2022/11/15 11:54:58;;;;;;;0.43;0.43;;;;;;;12.48;58.64;94799.34;4347736;32;20196;-61
2022/11/15 11:58:04;;;;;;;0.83;0.83;;;;;;;12.56;58.49;94797.78;4372043;32;20185;-61
2022/11/15 12:00:35;;;;;;;0.33;0.33;;;;;;;12.49;59.61;94797.47;4366182;32;20197;-61
2022/11/15 12:03:20;;;;;;;0.23;0.23;;;;;;;12.52;59.42;94791.53;4340803;32;20294;-62
2022/11/15 12:06:25;;;;;;;0.83;0.83;;;;;;;12.57;59.09;94799.34;4373039;32;20244;-61
2022/11/15 12:09:21;;;;;;;0.70;0.70;;;;;;;12.50;59.54;94791.06;4355545;32;20184;-61
2022/11/15 12:11:59;;;;;;;0.37;0.37;;;;;;;12.56;58.89;94782.59;4372489;32;20301;-61
2022/11/15 12:14:46;;;;;;;0.73;0.57;;;;;;;12.64;59.05;94781.00;4367508;32;20270;-61
2022/11/15 12:17:12;;;;;;;2.53;1.83;;;;;;;12.70;59.00;94775.16;4377353;32;20187;-60
2022/11/15 12:19:42;;;;;;;11.63;0.50;;;;;;;12.74;58.07;94770.00;4358998;32;20195;-63
2022/11/15 12:22:43;;;;;;;1.90;1.63;;;;;;;12.75;56.80;94766.22;4372000;32;20268;-61
2022/11/15 12:25:41;;;;;;;0.97;0.77;;;;;;;12.80;56.26;94763.41;4350548;32;20218;-62
2022/11/15 12:28:35;;;;;;;0.33;0.33;;;;;;;12.86;55.47;94770.09;4352204;32;20185;-62